sensor_id;sensor_type;location;lat;lon;timestamp;P1;durP1;ratioP1;P2;durP2;ratioP2
16039;SDS011;8124;48.634;8.120;2022-07-01T00:04:18;41.42;;;35.92;;
16039;SDS011;8124;48.634;8.120;2022-07-01T00:09:41;40.50;;;36.20;;
16039;SDS011;8124;48.634;8.120;2022-07-01T00:14:45;40.30;;;35.75;;
16039;SDS011;8124;48.634;8.120;2022-07-01T00:19:48;39.65;;;35.55;;
16039;SDS011;8124;48.634;8.120;2022-07-01T00:24:51;39.85;;;35.70;;
16039;SDS011;8124;48.634;8.120;2022-07-01T00:29:56;39.97;;;35.80;;
16039;SDS011;8124;48.634;8.120;2022-07-01T00:34:59;39.78;;;35.58;;
16039;SDS011;8124;48.634;8.120;2022-07-01T00:40:02;39.88;;;35.58;;
16039;SDS011;8124;48.634;8.120;2022-07-01T00:45:08;39.92;;;35.63;;
16039;SDS011;8124;48.634;8.120;2022-07-01T00:50:13;39.90;;;35.70;;
16039;SDS011;8124;48.634;8.120;2022-07-01T00:55:16;39.58;;;35.38;;
16039;SDS011;8124;48.634;8.120;2022-07-01T01:00:22;39.85;;;35.75;;
16039;SDS011;8124;48.634;8.120;2022-07-01T01:05:25;40.53;;;36.22;;
16039;SDS011;8124;48.634;8.120;2022-07-01T01:10:28;39.50;;;35.30;;
16039;SDS011;8124;48.634;8.120;2022-07-01T01:15:33;39.65;;;35.50;;
16039;SDS011;8124;48.634;8.120;2022-07-01T01:20:38;40.92;;;36.15;;
16039;SDS011;8124;48.634;8.120;2022-07-01T01:25:41;39.67;;;35.53;;
16039;SDS011;8124;48.634;8.120;2022-07-01T01:30:44;39.83;;;35.63;;
16039;SDS011;8124;48.634;8.120;2022-07-01T01:35:48;40.05;;;35.75;;
16039;SDS011;8124;48.634;8.120;2022-07-01T01:40:51;39.83;;;35.67;;
16039;SDS011;8124;48.634;8.120;2022-07-01T01:45:56;39.80;;;35.60;;
16039;SDS011;8124;48.634;8.120;2022-07-01T01:51:02;39.88;;;35.72;;
16039;SDS011;8124;48.634;8.120;2022-07-01T01:56:05;39.70;;;35.60;;
16039;SDS011;8124;48.634;8.120;2022-07-01T02:01:08;39.42;;;35.33;;
16039;SDS011;8124;48.634;8.120;2022-07-01T02:06:13;40.20;;;35.90;;
16039;SDS011;8124;48.634;8.120;2022-07-01T02:11:17;40.17;;;35.80;;
16039;SDS011;8124;48.634;8.120;2022-07-01T02:16:20;39.60;;;35.50;;
16039;SDS011;8124;48.634;8.120;2022-07-01T02:21:25;40.13;;;35.92;;
16039;SDS011;8124;48.634;8.120;2022-07-01T02:26:29;40.30;;;35.80;;
16039;SDS011;8124;48.634;8.120;2022-07-01T02:31:32;39.38;;;35.28;;
16039;SDS011;8124;48.634;8.120;2022-07-01T02:36:39;39.28;;;35.17;;
16039;SDS011;8124;48.634;8.120;2022-07-01T02:41:42;39.30;;;35.20;;
16039;SDS011;8124;48.634;8.120;2022-07-01T02:47:02;39.65;;;35.38;;
16039;SDS011;8124;48.634;8.120;2022-07-01T02:52:07;40.00;;;35.75;;
16039;SDS011;8124;48.634;8.120;2022-07-01T02:57:10;39.45;;;35.35;;
16039;SDS011;8124;48.634;8.120;2022-07-01T03:02:13;39.60;;;35.47;;
16039;SDS011;8124;48.634;8.120;2022-07-01T03:07:17;39.70;;;35.40;;
16039;SDS011;8124;48.634;8.120;2022-07-01T03:12:21;39.75;;;35.55;;
16039;SDS011;8124;48.634;8.120;2022-07-01T03:17:29;39.15;;;35.05;;
16039;SDS011;8124;48.634;8.120;2022-07-01T03:22:40;40.20;;;36.00;;
16039;SDS011;8124;48.634;8.120;2022-07-01T03:27:44;39.70;;;35.50;;
16039;SDS011;8124;48.634;8.120;2022-07-01T03:32:49;40.15;;;35.67;;
16039;SDS011;8124;48.634;8.120;2022-07-01T03:37:55;39.53;;;35.42;;
16039;SDS011;8124;48.634;8.120;2022-07-01T03:42:58;39.28;;;35.17;;
16039;SDS011;8124;48.634;8.120;2022-07-01T03:48:02;39.45;;;35.35;;
16039;SDS011;8124;48.634;8.120;2022-07-01T03:53:22;39.60;;;35.30;;
16039;SDS011;8124;48.634;8.120;2022-07-01T03:58:42;39.35;;;35.25;;
16039;SDS011;8124;48.634;8.120;2022-07-01T04:03:45;39.38;;;35.28;;
16039;SDS011;8124;48.634;8.120;2022-07-01T04:08:50;39.75;;;35.45;;
16039;SDS011;8124;48.634;8.120;2022-07-01T04:13:53;39.83;;;35.42;;
16039;SDS011;8124;48.634;8.120;2022-07-01T04:18:57;39.25;;;35.15;;
16039;SDS011;8124;48.634;8.120;2022-07-01T04:24:02;39.20;;;35.10;;
16039;SDS011;8124;48.634;8.120;2022-07-01T04:29:05;39.25;;;35.05;;
16039;SDS011;8124;48.634;8.120;2022-07-01T04:34:09;39.25;;;35.15;;
16039;SDS011;8124;48.634;8.120;2022-07-01T04:39:14;39.75;;;35.65;;
16039;SDS011;8124;48.634;8.120;2022-07-01T04:44:17;39.15;;;34.95;;
16039;SDS011;8124;48.634;8.120;2022-07-01T04:49:21;39.70;;;35.60;;
16039;SDS011;8124;48.634;8.120;2022-07-01T04:54:25;39.15;;;35.05;;
16039;SDS011;8124;48.634;8.120;2022-07-01T04:59:28;39.08;;;35.00;;
16039;SDS011;8124;48.634;8.120;2022-07-01T05:04:31;39.70;;;35.53;;
16039;SDS011;8124;48.634;8.120;2022-07-01T05:09:36;39.50;;;35.38;;
16039;SDS011;8124;48.634;8.120;2022-07-01T05:14:39;38.95;;;34.92;;
16039;SDS011;8124;48.634;8.120;2022-07-01T05:19:42;39.00;;;34.97;;
16039;SDS011;8124;48.634;8.120;2022-07-01T05:25:04;39.67;;;35.35;;
16039;SDS011;8124;48.634;8.120;2022-07-01T05:30:08;39.80;;;35.67;;
16039;SDS011;8124;48.634;8.120;2022-07-01T05:35:12;40.42;;;36.33;;
16039;SDS011;8124;48.634;8.120;2022-07-01T05:40:17;39.65;;;34.95;;
16039;SDS011;8124;48.634;8.120;2022-07-01T05:45:20;39.30;;;35.17;;
16039;SDS011;8124;48.634;8.120;2022-07-01T05:50:23;39.03;;;34.95;;
16039;SDS011;8124;48.634;8.120;2022-07-01T05:55:27;39.20;;;35.15;;
16039;SDS011;8124;48.634;8.120;2022-07-01T06:00:30;39.13;;;35.03;;
16039;SDS011;8124;48.634;8.120;2022-07-01T06:05:33;39.13;;;35.05;;
16039;SDS011;8124;48.634;8.120;2022-07-01T06:10:37;39.25;;;35.15;;
16039;SDS011;8124;48.634;8.120;2022-07-01T06:15:40;38.85;;;34.75;;
16039;SDS011;8124;48.634;8.120;2022-07-01T06:20:44;39.00;;;34.95;;
16039;SDS011;8124;48.634;8.120;2022-07-01T06:25:48;39.35;;;35.13;;
16039;SDS011;8124;48.634;8.120;2022-07-01T06:30:51;39.30;;;35.17;;
16039;SDS011;8124;48.634;8.120;2022-07-01T06:35:56;39.60;;;35.40;;
16039;SDS011;8124;48.634;8.120;2022-07-01T06:41:01;39.50;;;35.40;;
16039;SDS011;8124;48.634;8.120;2022-07-01T06:46:21;39.65;;;35.45;;
16039;SDS011;8124;48.634;8.120;2022-07-01T06:51:25;40.20;;;35.80;;
16039;SDS011;8124;48.634;8.120;2022-07-01T06:56:30;40.45;;;36.03;;
16039;SDS011;8124;48.634;8.120;2022-07-01T07:01:33;40.15;;;35.95;;
16039;SDS011;8124;48.634;8.120;2022-07-01T07:06:36;39.60;;;35.30;;
16039;SDS011;8124;48.634;8.120;2022-07-01T07:11:40;39.95;;;35.75;;
16039;SDS011;8124;48.634;8.120;2022-07-01T07:16:43;39.70;;;35.50;;
16039;SDS011;8124;48.634;8.120;2022-07-01T07:21:46;39.50;;;35.30;;
16039;SDS011;8124;48.634;8.120;2022-07-01T07:26:51;38.97;;;34.90;;
16039;SDS011;8124;48.634;8.120;2022-07-01T07:31:54;40.33;;;35.25;;
16039;SDS011;8124;48.634;8.120;2022-07-01T07:36:57;39.50;;;35.30;;
16039;SDS011;8124;48.634;8.120;2022-07-01T07:42:01;39.60;;;35.40;;
16039;SDS011;8124;48.634;8.120;2022-07-01T07:47:05;39.65;;;35.45;;
16039;SDS011;8124;48.634;8.120;2022-07-01T07:52:08;39.72;;;35.42;;
16039;SDS011;8124;48.634;8.120;2022-07-01T07:57:12;39.47;;;35.28;;
16039;SDS011;8124;48.634;8.120;2022-07-01T08:02:15;39.38;;;35.28;;
16039;SDS011;8124;48.634;8.120;2022-07-01T08:07:25;39.60;;;35.40;;
16039;SDS011;8124;48.634;8.120;2022-07-01T08:12:30;40.67;;;36.50;;
16039;SDS011;8124;48.634;8.120;2022-07-01T08:17:33;39.83;;;35.63;;
16039;SDS011;8124;48.634;8.120;2022-07-01T08:22:37;40.55;;;36.25;;
16039;SDS011;8124;48.634;8.120;2022-07-01T08:27:41;40.50;;;35.35;;
16039;SDS011;8124;48.634;8.120;2022-07-01T08:32:45;39.85;;;35.70;;
16039;SDS011;8124;48.634;8.120;2022-07-01T08:37:48;39.40;;;35.30;;
16039;SDS011;8124;48.634;8.120;2022-07-01T08:42:55;39.40;;;35.30;;
16039;SDS011;8124;48.634;8.120;2022-07-01T08:47:59;39.75;;;35.55;;
16039;SDS011;8124;48.634;8.120;2022-07-01T08:53:03;39.60;;;35.40;;
16039;SDS011;8124;48.634;8.120;2022-07-01T08:58:08;39.55;;;35.45;;
16039;SDS011;8124;48.634;8.120;2022-07-01T09:03:11;39.97;;;35.78;;
16039;SDS011;8124;48.634;8.120;2022-07-01T09:08:14;39.72;;;35.55;;
16039;SDS011;8124;48.634;8.120;2022-07-01T09:13:19;39.95;;;35.75;;
16039;SDS011;8124;48.634;8.120;2022-07-01T09:18:22;39.65;;;35.55;;
16039;SDS011;8124;48.634;8.120;2022-07-01T09:23:25;39.67;;;35.58;;
16039;SDS011;8124;48.634;8.120;2022-07-01T09:28:29;39.47;;;35.35;;
16039;SDS011;8124;48.634;8.120;2022-07-01T09:33:32;40.00;;;35.80;;
16039;SDS011;8124;48.634;8.120;2022-07-01T09:38:35;40.15;;;35.85;;
16039;SDS011;8124;48.634;8.120;2022-07-01T09:43:51;40.25;;;35.47;;
16039;SDS011;8124;48.634;8.120;2022-07-01T09:48:56;39.95;;;35.85;;
16039;SDS011;8124;48.634;8.120;2022-07-01T09:53:59;39.85;;;35.70;;
16039;SDS011;8124;48.634;8.120;2022-07-01T09:59:04;40.35;;;36.13;;
16039;SDS011;8124;48.634;8.120;2022-07-01T10:04:09;40.72;;;36.33;;
16039;SDS011;8124;48.634;8.120;2022-07-01T10:09:21;40.17;;;35.88;;
16039;SDS011;8124;48.634;8.120;2022-07-01T10:19:44;40.17;;;36.00;;
16039;SDS011;8124;48.634;8.120;2022-07-01T10:30:49;40.05;;;35.95;;
16039;SDS011;8124;48.634;8.120;2022-07-01T10:36:03;40.75;;;36.55;;
16039;SDS011;8124;48.634;8.120;2022-07-01T10:41:18;40.38;;;35.97;;
16039;SDS011;8124;48.634;8.120;2022-07-01T10:46:39;40.50;;;36.20;;
16039;SDS011;8124;48.634;8.120;2022-07-01T10:51:45;39.83;;;35.72;;
16039;SDS011;8124;48.634;8.120;2022-07-01T10:56:49;40.10;;;35.92;;
16039;SDS011;8124;48.634;8.120;2022-07-01T11:01:54;40.15;;;35.95;;
16039;SDS011;8124;48.634;8.120;2022-07-01T11:06:57;40.13;;;35.92;;
16039;SDS011;8124;48.634;8.120;2022-07-01T11:12:01;40.47;;;36.13;;
16039;SDS011;8124;48.634;8.120;2022-07-01T11:17:06;40.03;;;35.85;;
16039;SDS011;8124;48.634;8.120;2022-07-01T11:22:10;40.20;;;36.05;;
16039;SDS011;8124;48.634;8.120;2022-07-01T11:27:14;40.42;;;36.22;;
16039;SDS011;8124;48.634;8.120;2022-07-01T11:32:24;40.85;;;36.65;;
16039;SDS011;8124;48.634;8.120;2022-07-01T11:37:27;41.47;;;37.17;;
16039;SDS011;8124;48.634;8.120;2022-07-01T11:42:49;41.10;;;36.80;;
16039;SDS011;8124;48.634;8.120;2022-07-01T11:47:55;40.85;;;36.45;;
16039;SDS011;8124;48.634;8.120;2022-07-01T11:52:58;41.15;;;36.75;;
16039;SDS011;8124;48.634;8.120;2022-07-01T11:58:01;41.03;;;36.80;;
16039;SDS011;8124;48.634;8.120;2022-07-01T12:03:08;40.58;;;36.28;;
16039;SDS011;8124;48.634;8.120;2022-07-01T12:08:12;41.00;;;36.60;;
16039;SDS011;8124;48.634;8.120;2022-07-01T12:13:22;41.25;;;36.95;;
16039;SDS011;8124;48.634;8.120;2022-07-01T12:18:26;41.03;;;36.72;;
16039;SDS011;8124;48.634;8.120;2022-07-01T12:23:30;40.70;;;36.45;;
16039;SDS011;8124;48.634;8.120;2022-07-01T12:28:39;40.75;;;36.55;;
16039;SDS011;8124;48.634;8.120;2022-07-01T12:33:49;41.13;;;36.85;;
16039;SDS011;8124;48.634;8.120;2022-07-01T12:38:59;41.03;;;36.63;;
16039;SDS011;8124;48.634;8.120;2022-07-01T12:44:05;40.88;;;36.65;;
16039;SDS011;8124;48.634;8.120;2022-07-01T12:49:23;41.80;;;37.50;;
16039;SDS011;8124;48.634;8.120;2022-07-01T12:54:31;41.17;;;36.65;;
16039;SDS011;8124;48.634;8.120;2022-07-01T12:59:35;40.92;;;36.65;;
16039;SDS011;8124;48.634;8.120;2022-07-01T13:04:39;41.25;;;36.70;;
16039;SDS011;8124;48.634;8.120;2022-07-01T13:09:42;41.30;;;37.05;;
16039;SDS011;8124;48.634;8.120;2022-07-01T13:14:46;40.85;;;36.55;;
16039;SDS011;8124;48.634;8.120;2022-07-01T13:19:51;41.08;;;36.85;;
16039;SDS011;8124;48.634;8.120;2022-07-01T13:24:54;41.15;;;36.75;;
16039;SDS011;8124;48.634;8.120;2022-07-01T13:29:57;41.33;;;37.03;;
16039;SDS011;8124;48.634;8.120;2022-07-01T13:35:02;41.45;;;37.15;;
16039;SDS011;8124;48.634;8.120;2022-07-01T13:40:05;41.65;;;37.25;;
16039;SDS011;8124;48.634;8.120;2022-07-01T13:45:11;41.47;;;37.17;;
16039;SDS011;8124;48.634;8.120;2022-07-01T13:50:16;41.65;;;37.25;;
16039;SDS011;8124;48.634;8.120;2022-07-01T13:55:21;41.65;;;37.25;;
16039;SDS011;8124;48.634;8.120;2022-07-01T14:00:24;42.25;;;37.95;;
16039;SDS011;8124;48.634;8.120;2022-07-01T14:05:29;42.20;;;37.83;;
16039;SDS011;8124;48.634;8.120;2022-07-01T14:10:33;41.58;;;37.28;;
16039;SDS011;8124;48.634;8.120;2022-07-01T14:15:39;41.70;;;37.35;;
16039;SDS011;8124;48.634;8.120;2022-07-01T14:20:43;41.60;;;37.30;;
16039;SDS011;8124;48.634;8.120;2022-07-01T14:25:46;41.70;;;37.40;;
16039;SDS011;8124;48.634;8.120;2022-07-01T14:30:49;41.35;;;37.08;;
16039;SDS011;8124;48.634;8.120;2022-07-01T14:35:54;41.55;;;37.25;;
16039;SDS011;8124;48.634;8.120;2022-07-01T14:40:57;41.47;;;37.17;;
16039;SDS011;8124;48.634;8.120;2022-07-01T14:46:01;42.25;;;37.95;;
16039;SDS011;8124;48.634;8.120;2022-07-01T14:51:11;42.90;;;38.45;;
16039;SDS011;8124;48.634;8.120;2022-07-01T14:56:14;41.83;;;37.53;;
16039;SDS011;8124;48.634;8.120;2022-07-01T15:01:17;41.83;;;37.53;;
16039;SDS011;8124;48.634;8.120;2022-07-01T15:06:22;42.30;;;38.00;;
16039;SDS011;8124;48.634;8.120;2022-07-01T15:11:25;41.88;;;37.50;;
16039;SDS011;8124;48.634;8.120;2022-07-01T15:16:28;41.88;;;37.58;;
16039;SDS011;8124;48.634;8.120;2022-07-01T15:21:32;42.33;;;37.92;;
16039;SDS011;8124;48.634;8.120;2022-07-01T15:26:35;42.80;;;38.30;;
16039;SDS011;8124;48.634;8.120;2022-07-01T15:31:38;42.03;;;37.63;;
16039;SDS011;8124;48.634;8.120;2022-07-01T15:36:52;41.83;;;37.53;;
16039;SDS011;8124;48.634;8.120;2022-07-01T15:41:55;42.30;;;37.90;;
16039;SDS011;8124;48.634;8.120;2022-07-01T15:47:02;41.85;;;37.55;;
16039;SDS011;8124;48.634;8.120;2022-07-01T15:52:20;41.80;;;37.50;;
16039;SDS011;8124;48.634;8.120;2022-07-01T15:57:23;42.08;;;37.78;;
16039;SDS011;8124;48.634;8.120;2022-07-01T16:02:33;42.28;;;37.95;;
16039;SDS011;8124;48.634;8.120;2022-07-01T16:07:37;42.35;;;37.85;;
16039;SDS011;8124;48.634;8.120;2022-07-01T16:12:41;42.92;;;38.42;;
16039;SDS011;8124;48.634;8.120;2022-07-01T16:17:46;42.10;;;37.80;;
16039;SDS011;8124;48.634;8.120;2022-07-01T16:22:53;43.28;;;38.83;;
16039;SDS011;8124;48.634;8.120;2022-07-01T16:27:57;42.28;;;37.97;;
16039;SDS011;8124;48.634;8.120;2022-07-01T16:33:01;42.08;;;37.75;;
16039;SDS011;8124;48.634;8.120;2022-07-01T16:38:06;43.45;;;39.05;;
16039;SDS011;8124;48.634;8.120;2022-07-01T16:43:12;42.53;;;38.15;;
16039;SDS011;8124;48.634;8.120;2022-07-01T16:48:17;43.05;;;38.65;;
16039;SDS011;8124;48.634;8.120;2022-07-01T16:53:29;43.10;;;38.70;;
16039;SDS011;8124;48.634;8.120;2022-07-01T16:58:39;42.25;;;37.75;;
16039;SDS011;8124;48.634;8.120;2022-07-01T17:03:43;42.50;;;38.10;;
16039;SDS011;8124;48.634;8.120;2022-07-01T17:08:48;42.80;;;38.40;;
16039;SDS011;8124;48.634;8.120;2022-07-01T17:13:53;43.30;;;38.90;;
16039;SDS011;8124;48.634;8.120;2022-07-01T17:18:58;42.85;;;38.35;;
16039;SDS011;8124;48.634;8.120;2022-07-01T17:24:03;42.72;;;38.33;;
16039;SDS011;8124;48.634;8.120;2022-07-01T17:29:08;43.72;;;39.33;;
16039;SDS011;8124;48.634;8.120;2022-07-01T17:34:14;43.28;;;38.88;;
16039;SDS011;8124;48.634;8.120;2022-07-01T17:39:18;43.38;;;38.97;;
16039;SDS011;8124;48.634;8.120;2022-07-01T17:44:24;42.25;;;37.92;;
16039;SDS011;8124;48.634;8.120;2022-07-01T17:49:29;42.90;;;38.53;;
16039;SDS011;8124;48.634;8.120;2022-07-01T17:54:35;42.55;;;38.15;;
16039;SDS011;8124;48.634;8.120;2022-07-01T17:59:41;42.60;;;38.28;;
16039;SDS011;8124;48.634;8.120;2022-07-01T18:04:45;42.92;;;38.42;;
16039;SDS011;8124;48.634;8.120;2022-07-01T18:09:51;42.58;;;38.22;;
16039;SDS011;8124;48.634;8.120;2022-07-01T18:14:58;42.83;;;38.42;;
16039;SDS011;8124;48.634;8.120;2022-07-01T18:20:06;42.95;;;38.45;;
16039;SDS011;8124;48.634;8.120;2022-07-01T18:25:13;42.88;;;38.55;;
16039;SDS011;8124;48.634;8.120;2022-07-01T18:35:33;43.28;;;38.88;;
16039;SDS011;8124;48.634;8.120;2022-07-01T18:40:39;43.15;;;38.75;;
16039;SDS011;8124;48.634;8.120;2022-07-01T18:45:42;42.95;;;38.55;;
16039;SDS011;8124;48.634;8.120;2022-07-01T18:50:51;43.35;;;38.85;;
16039;SDS011;8124;48.634;8.120;2022-07-01T18:55:55;42.95;;;38.55;;
16039;SDS011;8124;48.634;8.120;2022-07-01T19:00:59;42.60;;;38.22;;
16039;SDS011;8124;48.634;8.120;2022-07-01T19:06:03;43.45;;;39.05;;
16039;SDS011;8124;48.634;8.120;2022-07-01T19:11:10;42.63;;;38.22;;
16039;SDS011;8124;48.634;8.120;2022-07-01T19:16:13;42.72;;;38.35;;
16039;SDS011;8124;48.634;8.120;2022-07-01T19:21:16;43.72;;;39.33;;
16039;SDS011;8124;48.634;8.120;2022-07-01T19:26:21;43.30;;;38.70;;
16039;SDS011;8124;48.634;8.120;2022-07-01T19:31:29;43.10;;;38.70;;
16039;SDS011;8124;48.634;8.120;2022-07-01T19:36:33;42.55;;;38.25;;
16039;SDS011;8124;48.634;8.120;2022-07-01T19:41:37;42.78;;;38.17;;
16039;SDS011;8124;48.634;8.120;2022-07-01T19:46:41;42.17;;;37.88;;
16039;SDS011;8124;48.634;8.120;2022-07-01T19:51:44;42.35;;;38.05;;
16039;SDS011;8124;48.634;8.120;2022-07-01T19:56:49;42.40;;;38.03;;
16039;SDS011;8124;48.634;8.120;2022-07-01T20:01:53;42.15;;;37.85;;
16039;SDS011;8124;48.634;8.120;2022-07-01T20:06:57;41.92;;;37.63;;
16039;SDS011;8124;48.634;8.120;2022-07-01T20:12:02;42.13;;;37.83;;
16039;SDS011;8124;48.634;8.120;2022-07-01T20:17:05;41.58;;;37.30;;
16039;SDS011;8124;48.634;8.120;2022-07-01T20:22:09;42.88;;;38.47;;
16039;SDS011;8124;48.634;8.120;2022-07-01T20:27:13;42.53;;;38.08;;
16039;SDS011;8124;48.634;8.120;2022-07-01T20:32:16;41.65;;;37.42;;
16039;SDS011;8124;48.634;8.120;2022-07-01T20:37:19;41.63;;;37.22;;
16039;SDS011;8124;48.634;8.120;2022-07-01T20:42:23;41.08;;;36.88;;
16039;SDS011;8124;48.634;8.120;2022-07-01T20:47:27;41.88;;;37.58;;
16039;SDS011;8124;48.634;8.120;2022-07-01T20:52:37;42.22;;;37.67;;
16039;SDS011;8124;48.634;8.120;2022-07-01T20:57:41;41.38;;;37.13;;
16039;SDS011;8124;48.634;8.120;2022-07-01T21:02:44;41.85;;;37.55;;
16039;SDS011;8124;48.634;8.120;2022-07-01T21:07:54;42.72;;;36.85;;
16039;SDS011;8124;48.634;8.120;2022-07-01T21:13:01;40.75;;;36.55;;
16039;SDS011;8124;48.634;8.120;2022-07-01T21:18:04;41.08;;;36.88;;
16039;SDS011;8124;48.634;8.120;2022-07-01T21:23:08;40.92;;;36.63;;
16039;SDS011;8124;48.634;8.120;2022-07-01T21:28:12;40.90;;;36.65;;
16039;SDS011;8124;48.634;8.120;2022-07-01T21:33:15;41.20;;;36.95;;
16039;SDS011;8124;48.634;8.120;2022-07-01T21:38:18;43.72;;;36.45;;
16039;SDS011;8124;48.634;8.120;2022-07-01T21:43:24;40.38;;;36.22;;
16039;SDS011;8124;48.634;8.120;2022-07-01T21:48:27;40.63;;;36.33;;
16039;SDS011;8124;48.634;8.120;2022-07-01T21:53:30;40.42;;;36.20;;
16039;SDS011;8124;48.634;8.120;2022-07-01T21:58:36;40.58;;;36.38;;
16039;SDS011;8124;48.634;8.120;2022-07-01T22:03:41;40.60;;;36.40;;
16039;SDS011;8124;48.634;8.120;2022-07-01T22:08:45;40.65;;;36.35;;
16039;SDS011;8124;48.634;8.120;2022-07-01T22:13:52;40.90;;;36.50;;
16039;SDS011;8124;48.634;8.120;2022-07-01T22:19:01;40.33;;;36.15;;
16039;SDS011;8124;48.634;8.120;2022-07-01T22:24:06;40.30;;;36.10;;
16039;SDS011;8124;48.634;8.120;2022-07-01T22:29:14;40.92;;;36.63;;
16039;SDS011;8124;48.634;8.120;2022-07-01T22:34:20;40.63;;;36.42;;
16039;SDS011;8124;48.634;8.120;2022-07-01T22:39:25;40.42;;;36.13;;
16039;SDS011;8124;48.634;8.120;2022-07-01T22:44:29;39.95;;;35.83;;
16039;SDS011;8124;48.634;8.120;2022-07-01T22:49:41;40.40;;;36.05;;
16039;SDS011;8124;48.634;8.120;2022-07-01T22:55:16;40.22;;;35.92;;
16039;SDS011;8124;48.634;8.120;2022-07-01T23:00:34;42.65;;;38.25;;
16039;SDS011;8124;48.634;8.120;2022-07-01T23:05:41;40.45;;;36.25;;
16039;SDS011;8124;48.634;8.120;2022-07-01T23:10:48;39.55;;;35.45;;
16039;SDS011;8124;48.634;8.120;2022-07-01T23:15:55;40.08;;;35.88;;
16039;SDS011;8124;48.634;8.120;2022-07-01T23:21:17;39.80;;;35.53;;
16039;SDS011;8124;48.634;8.120;2022-07-01T23:26:20;40.25;;;36.05;;
16039;SDS011;8124;48.634;8.120;2022-07-01T23:31:29;40.10;;;35.90;;
16039;SDS011;8124;48.634;8.120;2022-07-01T23:36:32;40.50;;;36.30;;
16039;SDS011;8124;48.634;8.120;2022-07-01T23:41:36;40.05;;;35.75;;
16039;SDS011;8124;48.634;8.120;2022-07-01T23:46:40;39.92;;;35.45;;
16039;SDS011;8124;48.634;8.120;2022-07-01T23:57:10;39.60;;;35.50;;
